METAR EDWI 141420Z AUTO 22008KT 9999 BKN017 04/M00 Q0988=

Die Wetterinformationen haben nur informativen Charakter
und dürfen nicht zum Zwecke der Flugplanung benutzt werden.

StartseiteAktuellesyourways Flugpläne WHV

Hier die aktuellen Flugpläne von yourways

flugplan

Go to top